Time;durP1;ratioP1;P1;durP2;ratioP2;P2;SDS_P1;SDS_P2;PMS_P1;PMS_P2;Temp;Humidity;BMP_temperature;BMP_pressure;BME280_temperature;BME280_humidity;BME280_pressure;Samples;Min_cycle;Max_cycle;Signal;HPM_P1;HPM_P2
2022/05/14 00:01:16;;;;;;;15.80;5.00;;;;;;;;;;5002750;28;20034;-70
2022/05/14 00:03:42;;;;;;;18.42;4.80;;;;;;;;;;5008546;28;20065;-70
2022/05/14 00:06:11;;;;;;;12.80;4.50;;;;;;;;;;5004122;28;20042;-70
2022/05/14 00:08:38;;;;;;;16.77;4.10;;;;;;;;;;5004418;28;20049;-70
2022/05/14 00:13:48;;;;;;;14.77;4.88;;;;;;;;;;5004204;28;20348;-69
2022/05/14 00:16:15;;;;;;;18.42;5.10;;;;;;;;;;5003061;28;20357;-69
2022/05/14 00:18:41;;;;;;;12.30;4.63;;;;;;;;;;5003254;28;20062;-71
2022/05/14 00:21:07;;;;;;;18.80;4.97;;;;;;;;;;5003611;28;20038;-71
2022/05/14 00:23:33;;;;;;;11.32;4.35;;;;;;;;;;5002891;28;20034;-70
2022/05/14 00:25:59;;;;;;;13.73;4.93;;;;;;;;;;5003179;28;20064;-69
2022/05/14 00:28:24;;;;;;;18.70;5.38;;;;;;;;;;5002787;28;20306;-68
2022/05/14 00:30:50;;;;;;;13.75;5.35;;;;;;;;;;5002717;28;20026;-70
2022/05/14 00:33:16;;;;;;;16.80;5.25;;;;;;;;;;5002436;28;20030;-69
2022/05/14 00:35:42;;;;;;;17.90;4.88;;;;;;;;;;5002402;28;20026;-70
2022/05/14 00:38:08;;;;;;;12.75;4.55;;;;;;;;;;5002532;28;20026;-70
2022/05/14 00:40:41;;;;;;;19.02;4.85;;;;;;;;;;5002703;28;20053;-70
2022/05/14 00:43:08;;;;;;;13.30;5.15;;;;;;;;;;5002935;28;20030;-70
2022/05/14 00:45:36;;;;;;;14.95;5.07;;;;;;;;;;5002282;28;20073;-69
2022/05/14 00:48:03;;;;;;;17.08;5.13;;;;;;;;;;5002529;28;20049;-68
2022/05/14 00:50:34;;;;;;;17.30;5.32;;;;;;;;;;5001865;28;20459;-68
2022/05/14 00:53:08;;;;;;;15.38;4.60;;;;;;;;;;5002110;28;20274;-70
2022/05/14 00:55:35;;;;;;;14.40;5.18;;;;;;;;;;5001814;28;20368;-69
2022/05/14 00:58:02;;;;;;;13.57;5.22;;;;;;;;;;5001782;28;20081;-71
2022/05/14 01:00:29;;;;;;;14.25;4.78;;;;;;;;;;5002140;28;20073;-70
2022/05/14 01:02:54;;;;;;;13.52;4.57;;;;;;;;;;5001661;28;20072;-69
2022/05/14 01:05:21;;;;;;;19.52;4.82;;;;;;;;;;5002321;28;20026;-70
2022/05/14 01:07:51;;;;;;;15.13;5.20;;;;;;;;;;5001620;28;20092;-70
2022/05/14 01:10:18;;;;;;;;;;;;;;;;;;5001959;28;20101;-69
2022/05/14 01:12:52;;;;;;;16.25;4.90;;;;;;;;;;5001711;28;19910;-69
2022/05/14 01:15:21;;;;;;;19.80;4.90;;;;;;;;;;5001439;28;20097;-70
2022/05/14 01:17:47;;;;;;;18.13;5.07;;;;;;;;;;5001855;28;20034;-69
2022/05/14 01:20:14;;;;;;;14.70;4.90;;;;;;;;;;5001460;28;20040;-67
2022/05/14 01:23:21;;;;;;;13.95;4.60;;;;;;;;;;5001961;28;20034;-70
2022/05/14 01:26:27;;;;;;;17.38;5.03;;;;;;;;;;5000128;28;20065;-69
2022/05/14 01:28:53;;;;;;;13.20;4.88;;;;;;;;;;5000840;28;20034;-69
2022/05/14 01:31:19;;;;;;;17.48;5.13;;;;;;;;;;5001466;28;20034;-69
2022/05/14 01:33:44;;;;;;;19.50;5.45;;;;;;;;;;5000886;28;20073;-68
2022/05/14 01:36:09;;;;;;;13.95;4.68;;;;;;;;;;5000995;28;20318;-69
2022/05/14 01:38:35;;;;;;;13.95;4.38;;;;;;;;;;5000910;28;20080;-70
2022/05/14 01:41:01;;;;;;;15.68;5.03;;;;;;;;;;5001143;28;20030;-69
2022/05/14 01:43:28;;;;;;;16.30;5.07;;;;;;;;;;5001551;28;20045;-69
2022/05/14 01:45:53;;;;;;;19.25;4.70;;;;;;;;;;5001338;28;20030;-70
2022/05/14 01:48:19;;;;;;;17.60;4.82;;;;;;;;;;5000939;28;20041;-69
2022/05/14 01:50:44;;;;;;;12.25;5.00;;;;;;;;;;5000975;28;20030;-69
2022/05/14 01:53:10;;;;;;;16.25;4.80;;;;;;;;;;5000671;28;20026;-68
2022/05/14 01:55:35;;;;;;;21.23;5.10;;;;;;;;;;5000910;28;20030;-69
2022/05/14 01:58:36;;;;;;;17.50;4.82;;;;;;;;;;5013972;28;20038;-66
2022/05/14 02:00:46;;;;;;;20.00;5.20;;;;;;;;;;5020195;28;20038;-68
2022/05/14 02:03:12;;;;;;;11.98;4.90;;;;;;;;;;5019485;28;20033;-67
2022/05/14 02:05:37;;;;;;;14.25;4.68;;;;;;;;;;5021783;28;20314;-68
2022/05/14 02:08:02;;;;;;;14.02;5.43;;;;;;;;;;5021748;28;20080;-68
2022/05/14 02:10:28;;;;;;;13.13;4.88;;;;;;;;;;5021695;28;20129;-70
2022/05/14 02:12:53;;;;;;;14.07;4.70;;;;;;;;;;5021689;28;20036;-68
2022/05/14 02:15:19;;;;;;;14.52;4.68;;;;;;;;;;5020702;28;20021;-69
2022/05/14 02:17:44;;;;;;;13.75;5.28;;;;;;;;;;5021843;28;20056;-69
2022/05/14 02:20:10;;;;;;;13.70;4.90;;;;;;;;;;5021814;28;20030;-67
2022/05/14 02:22:36;;;;;;;15.07;5.05;;;;;;;;;;5021794;28;20088;-69
2022/05/14 02:25:02;;;;;;;18.15;5.30;;;;;;;;;;5021474;28;20030;-69
2022/05/14 02:27:27;;;;;;;12.55;4.70;;;;;;;;;;5021669;28;20402;-69
2022/05/14 02:29:55;;;;;;;15.00;4.95;;;;;;;;;;5021414;28;20026;-70
2022/05/14 02:32:23;;;;;;;14.85;5.20;;;;;;;;;;5021671;28;20282;-69
2022/05/14 02:34:49;;;;;;;15.05;4.95;;;;;;;;;;5021420;28;20040;-67
2022/05/14 02:37:17;;;;;;;17.13;5.50;;;;;;;;;;5021919;28;20026;-66
2022/05/14 02:39:43;;;;;;;15.07;4.65;;;;;;;;;;5021242;28;20064;-70
2022/05/14 02:42:08;;;;;;;13.48;4.93;;;;;;;;;;5021598;28;20233;-68
2022/05/14 02:44:34;;;;;;;12.43;5.20;;;;;;;;;;5021335;28;20306;-69
2022/05/14 02:47:00;;;;;;;15.63;4.72;;;;;;;;;;5021466;28;20101;-70
2022/05/14 02:49:25;;;;;;;10.27;4.75;;;;;;;;;;5021352;28;20374;-70
2022/05/14 02:54:26;;;;;;;12.10;4.75;;;;;;;;;;5619715;22;20057;-68
2022/05/14 02:56:52;;;;;;;15.00;4.88;;;;;;;;;;5058612;28;20051;-67
2022/05/14 02:59:18;;;;;;;15.10;4.80;;;;;;;;;;5060952;28;20051;-70
2022/05/14 03:01:49;;;;;;;15.57;5.03;;;;;;;;;;5060921;28;20021;-70
2022/05/14 03:04:17;;;;;;;17.08;5.20;;;;;;;;;;5059949;28;20033;-67
2022/05/14 03:06:42;;;;;;;14.82;4.72;;;;;;;;;;5060414;28;20229;-70
2022/05/14 03:09:07;;;;;;;14.00;4.90;;;;;;;;;;5059339;28;20318;-69
2022/05/14 03:11:33;;;;;;;14.68;5.03;;;;;;;;;;5059028;28;20340;-69
2022/05/14 03:13:58;;;;;;;16.42;5.53;;;;;;;;;;5059415;28;20028;-69
2022/05/14 03:16:24;;;;;;;12.82;4.90;;;;;;;;;;5059283;28;20092;-69
2022/05/14 03:18:49;;;;;;;15.55;5.18;;;;;;;;;;5059709;28;20044;-67
2022/05/14 03:21:15;;;;;;;16.75;5.07;;;;;;;;;;5059072;28;20017;-69
2022/05/14 03:23:40;;;;;;;14.55;5.20;;;;;;;;;;5058797;28;20032;-69
2022/05/14 03:26:06;;;;;;;21.67;5.70;;;;;;;;;;5061240;28;20040;-69
2022/05/14 03:28:31;;;;;;;13.65;5.22;;;;;;;;;;5062718;28;20048;-71
2022/05/14 03:30:57;;;;;;;15.43;5.10;;;;;;;;;;5062527;28;20029;-68
2022/05/14 03:33:23;;;;;;;14.35;5.03;;;;;;;;;;5062890;28;20025;-69
2022/05/14 03:35:48;;;;;;;11.80;4.93;;;;;;;;;;5063341;28;20033;-69
2022/05/14 03:38:14;;;;;;;11.85;4.85;;;;;;;;;;5063422;28;20087;-69
2022/05/14 03:40:39;;;;;;;14.75;4.85;;;;;;;;;;5062765;28;20041;-70
2022/05/14 03:43:05;;;;;;;14.90;5.53;;;;;;;;;;5062750;28;20059;-70
2022/05/14 03:45:30;;;;;;;13.05;5.28;;;;;;;;;;5061848;28;20041;-70
2022/05/14 03:47:56;;;;;;;13.75;4.80;;;;;;;;;;5062312;28;20052;-68
2022/05/14 03:50:22;;;;;;;11.98;5.13;;;;;;;;;;5073168;28;20066;-69
2022/05/14 03:52:47;;;;;;;14.13;5.53;;;;;;;;;;5082608;28;20048;-70
2022/05/14 03:55:13;;;;;;;16.60;6.18;;;;;;;;;;5081593;28;20041;-69
2022/05/14 03:57:38;;;;;;;15.00;5.20;;;;;;;;;;5082210;28;20091;-69
2022/05/14 04:00:07;;;;;;;10.82;5.20;;;;;;;;;;5082360;28;20196;-71
2022/05/14 04:02:34;;;;;;;13.13;5.30;;;;;;;;;;5082601;28;20036;-70
2022/05/14 04:04:59;;;;;;;11.30;5.00;;;;;;;;;;5081582;28;20021;-70
2022/05/14 04:07:25;;;;;;;13.35;5.15;;;;;;;;;;5082159;28;20035;-70
2022/05/14 04:09:51;;;;;;;17.70;5.65;;;;;;;;;;5082468;28;20048;-70
2022/05/14 04:12:17;;;;;;;12.57;5.28;;;;;;;;;;5082501;28;20265;-69
2022/05/14 04:14:43;;;;;;;16.90;5.18;;;;;;;;;;5082174;28;20037;-71
2022/05/14 04:17:08;;;;;;;12.27;5.10;;;;;;;;;;5082087;28;20224;-69
2022/05/14 04:19:34;;;;;;;12.68;5.30;;;;;;;;;;5081722;28;20254;-69
2022/05/14 04:21:59;;;;;;;10.57;4.80;;;;;;;;;;5081865;28;20286;-69
2022/05/14 04:24:25;;;;;;;11.00;4.95;;;;;;;;;;5081725;28;20051;-68
2022/05/14 04:26:50;;;;;;;16.00;5.07;;;;;;;;;;5082000;28;20098;-70
2022/05/14 04:29:15;;;;;;;16.65;5.40;;;;;;;;;;5081707;28;20707;-69
2022/05/14 04:31:41;;;;;;;15.38;5.05;;;;;;;;;;5081321;28;20044;-69
2022/05/14 04:34:07;;;;;;;14.98;4.90;;;;;;;;;;5081279;28;20024;-70
2022/05/14 04:36:32;;;;;;;13.32;5.28;;;;;;;;;;5080269;28;20315;-69
2022/05/14 04:38:58;;;;;;;15.00;5.50;;;;;;;;;;5080989;28;20238;-69
2022/05/14 04:41:25;;;;;;;12.25;5.00;;;;;;;;;;5081430;28;20112;-70
2022/05/14 04:43:51;;;;;;;16.58;5.63;;;;;;;;;;5081617;28;20020;-67
2022/05/14 04:46:17;;;;;;;16.13;5.60;;;;;;;;;;5081217;28;20031;-66
2022/05/14 04:48:42;;;;;;;16.67;5.78;;;;;;;;;;5081316;28;20059;-69
2022/05/14 04:51:08;;;;;;;13.40;5.60;;;;;;;;;;5080780;28;20097;-69
2022/05/14 04:53:33;;;;;;;14.30;5.95;;;;;;;;;;5081176;28;20033;-69
2022/05/14 04:55:59;;;;;;;13.38;5.95;;;;;;;;;;5079728;28;20051;-69
2022/05/14 04:58:24;;;;;;;14.57;5.97;;;;;;;;;;5062322;28;20197;-69
2022/05/14 05:00:50;;;;;;;16.30;5.63;;;;;;;;;;5061632;28;20031;-68
2022/05/14 05:03:19;;;;;;;14.52;5.45;;;;;;;;;;5062244;28;20017;-70
2022/05/14 05:05:56;;;;;;;14.02;5.68;;;;;;;;;;5061245;28;20028;-66
2022/05/14 05:08:24;;;;;;;18.08;6.07;;;;;;;;;;5061279;28;20033;-69
2022/05/14 05:10:50;;;;;;;13.68;5.95;;;;;;;;;;5060752;28;20332;-69
2022/05/14 05:13:21;;;;;;;19.83;6.63;;;;;;;;;;5061397;28;20312;-69
2022/05/14 05:15:46;;;;;;;15.80;5.88;;;;;;;;;;5060940;28;20024;-70
2022/05/14 05:18:12;;;;;;;17.42;6.15;;;;;;;;;;5061123;28;20201;-67
2022/05/14 05:20:40;;;;;;;13.73;5.63;;;;;;;;;;5060853;28;20460;-70
2022/05/14 05:23:06;;;;;;;20.63;6.35;;;;;;;;;;5060818;28;20227;-70
2022/05/14 05:25:32;;;;;;;21.23;6.03;;;;;;;;;;5060495;28;20383;-70
2022/05/14 05:27:57;;;;;;;18.33;6.60;;;;;;;;;;5060513;28;20032;-69
2022/05/14 05:30:23;;;;;;;15.25;6.20;;;;;;;;;;5061171;28;20316;-70
2022/05/14 05:32:49;;;;;;;13.43;5.63;;;;;;;;;;5061315;28;20101;-69
2022/05/14 05:35:15;;;;;;;17.88;6.22;;;;;;;;;;5060937;28;20044;-69
2022/05/14 05:37:40;;;;;;;16.25;5.85;;;;;;;;;;5060581;28;20116;-69
2022/05/14 05:40:06;;;;;;;18.73;6.20;;;;;;;;;;5060156;28;20029;-69
2022/05/14 05:42:32;;;;;;;15.68;5.78;;;;;;;;;;5060039;28;20028;-70
2022/05/14 05:44:58;;;;;;;16.83;5.60;;;;;;;;;;5059875;28;20331;-68
2022/05/14 05:47:23;;;;;;;15.77;5.47;;;;;;;;;;5059799;28;20036;-69
2022/05/14 05:49:50;;;;;;;14.23;5.55;;;;;;;;;;5060281;28;20044;-69
2022/05/14 05:52:15;;;;;;;20.25;5.45;;;;;;;;;;5060125;28;20056;-70
2022/05/14 05:57:43;;;;;;;16.38;5.75;;;;;;;;;;5059894;28;20350;-70
2022/05/14 06:00:11;;;;;;;12.02;5.05;;;;;;;;;;5058770;28;20060;-70
2022/05/14 06:02:36;;;;;;;16.52;5.80;;;;;;;;;;5061328;28;20047;-69
2022/05/14 06:05:04;;;;;;;16.08;5.40;;;;;;;;;;5056172;28;20052;-71
2022/05/14 06:07:29;;;;;;;16.70;5.20;;;;;;;;;;5049813;28;20028;-70
2022/05/14 06:09:55;;;;;;;13.73;4.57;;;;;;;;;;5050253;28;20029;-69
2022/05/14 06:12:20;;;;;;;14.73;4.90;;;;;;;;;;5050032;28;20036;-70
2022/05/14 06:14:46;;;;;;;13.95;4.90;;;;;;;;;;5050049;28;20025;-71
2022/05/14 06:17:11;;;;;;;19.25;5.30;;;;;;;;;;5047464;28;20036;-71
2022/05/14 06:19:37;;;;;;;14.73;4.68;;;;;;;;;;5049421;28;20435;-72
2022/05/14 06:22:04;;;;;;;15.32;5.07;;;;;;;;;;5049679;28;20601;-71
2022/05/14 06:24:30;;;;;;;14.40;5.60;;;;;;;;;;5050184;28;20151;-70
2022/05/14 06:26:56;;;;;;;20.20;5.00;;;;;;;;;;5049699;28;20033;-70
2022/05/14 06:29:21;;;;;;;18.33;5.28;;;;;;;;;;5059134;28;20032;-70
2022/05/14 06:31:47;;;;;;;14.13;4.93;;;;;;;;;;5061338;28;20143;-70
2022/05/14 06:34:13;;;;;;;20.50;5.00;;;;;;;;;;5061624;28;20040;-70
2022/05/14 06:36:39;;;;;;;13.40;5.07;;;;;;;;;;5061365;28;20044;-70
2022/05/14 06:39:05;;;;;;;15.38;5.55;;;;;;;;;;5061145;28;20048;-70
2022/05/14 06:41:30;;;;;;;16.10;5.28;;;;;;;;;;5061238;28;20033;-70
2022/05/14 06:43:56;;;;;;;14.10;5.55;;;;;;;;;;5061746;28;20024;-70
2022/05/14 06:46:22;;;;;;;19.15;5.45;;;;;;;;;;5061194;28;20029;-70
2022/05/14 06:48:48;;;;;;;14.23;5.68;;;;;;;;;;5061473;28;20308;-71
2022/05/14 06:51:23;;;;;;;21.77;5.05;;;;;;;;;;5061173;28;20028;-71
2022/05/14 06:53:50;;;;;;;16.20;5.70;;;;;;;;;;5060847;28;20048;-69
2022/05/14 06:56:18;;;;;;;15.93;5.50;;;;;;;;;;5060605;28;20052;-70
2022/05/14 06:58:48;;;;;;;17.52;5.65;;;;;;;;;;5061084;28;20142;-70
2022/05/14 07:01:16;;;;;;;18.63;5.73;;;;;;;;;;5062178;28;20037;-70
2022/05/14 07:06:37;;;;;;;11.20;5.50;;;;;;;;;;5064683;28;20254;-69
2022/05/14 07:09:08;;;;;;;11.30;5.25;;;;;;;;;;5057622;28;20131;-64
2022/05/14 07:11:35;;;;;;;;;;;;;;;;;;5056346;28;20033;-67
2022/05/14 07:14:01;;;;;;;13.90;4.53;;;;;;;;;;5064937;28;19916;-68
2022/05/14 07:16:26;;;;;;;18.83;4.80;;;;;;;;;;5064453;28;20070;-72
2022/05/14 07:18:52;;;;;;;17.25;4.70;;;;;;;;;;5064789;28;20024;-69
2022/05/14 07:21:17;;;;;;;12.13;4.68;;;;;;;;;;5064547;28;20220;-70
2022/05/14 07:23:43;;;;;;;17.10;4.80;;;;;;;;;;5064735;28;20009;-70
2022/05/14 07:26:08;;;;;;;18.23;5.20;;;;;;;;;;5064185;28;20043;-68
2022/05/14 07:28:35;;;;;;;15.65;5.45;;;;;;;;;;5064486;28;20029;-68
2022/05/14 07:31:01;;;;;;;11.40;4.80;;;;;;;;;;5064198;28;20029;-71
2022/05/14 07:33:31;;;;;;;15.45;5.20;;;;;;;;;;5064183;28;20100;-69
2022/05/14 07:36:03;;;;;;;12.82;5.15;;;;;;;;;;5063475;28;20051;-71
2022/05/14 07:38:30;;;;;;;18.60;5.50;;;;;;;;;;5063559;28;20370;-70
2022/05/14 07:40:55;;;;;;;18.90;5.65;;;;;;;;;;5063352;28;20035;-68
2022/05/14 07:43:30;;;;;;;16.42;5.22;;;;;;;;;;5063537;28;20033;-65
2022/05/14 07:46:01;;;;;;;21.60;5.55;;;;;;;;;;5063005;28;20067;-67
2022/05/14 07:48:35;;;;;;;11.98;5.47;;;;;;;;;;5062868;28;20250;-72
2022/05/14 07:51:02;;;;;;;11.05;5.05;;;;;;;;;;5061607;28;20368;-69
2022/05/14 07:53:30;;;;;;;16.08;5.28;;;;;;;;;;5060961;28;20193;-81
2022/05/14 07:56:00;;;;;;;15.00;5.68;;;;;;;;;;5061212;28;20279;-69
2022/05/14 07:58:26;;;;;;;18.40;6.30;;;;;;;;;;5061833;28;20024;-65
2022/05/14 08:00:51;;;;;;;20.27;6.50;;;;;;;;;;5059796;28;20021;-66
2022/05/14 08:03:17;;;;;;;16.83;6.07;;;;;;;;;;5062197;28;20028;-64
2022/05/14 08:05:43;;;;;;;16.05;6.55;;;;;;;;;;5049175;28;20059;-68
2022/05/14 08:08:08;;;;;;;17.10;6.30;;;;;;;;;;5048137;28;20139;-68
2022/05/14 08:10:35;;;;;;;19.83;5.65;;;;;;;;;;5063450;28;20029;-69
2022/05/14 08:13:01;;;;;;;15.95;5.65;;;;;;;;;;5061978;28;20024;-67
2022/05/14 08:15:27;;;;;;;17.00;5.97;;;;;;;;;;5063721;28;20025;-68
2022/05/14 08:17:53;;;;;;;18.35;6.03;;;;;;;;;;5063466;28;20029;-67
2022/05/14 08:20:20;;;;;;;17.42;6.30;;;;;;;;;;5073868;28;20055;-67
2022/05/14 08:25:30;;;;;;;17.05;5.70;;;;;;;;;;5082709;28;20051;-74
2022/05/14 08:27:56;;;;;;;19.10;5.65;;;;;;;;;;5082176;28;20025;-65
2022/05/14 08:30:24;;;;;;;11.80;5.90;;;;;;;;;;5082483;28;20067;-67
2022/05/14 08:32:50;;;;;;;14.88;6.00;;;;;;;;;;5082107;28;20499;-69
2022/05/14 08:35:18;;;;;;;14.95;6.10;;;;;;;;;;5079609;28;20024;-69
2022/05/14 08:37:44;;;;;;;19.38;6.18;;;;;;;;;;5062300;28;20088;-68
2022/05/14 08:40:17;;;;;;;16.08;6.10;;;;;;;;;;5047444;28;20260;-68
2022/05/14 08:42:46;;;;;;;11.38;5.35;;;;;;;;;;5042563;28;20271;-68
2022/05/14 08:45:15;;;;;;;15.15;6.20;;;;;;;;;;5043217;28;20025;-72
2022/05/14 08:47:48;;;;;;;14.48;5.38;;;;;;;;;;5042740;28;20033;-68
2022/05/14 08:50:14;;;;;;;15.85;5.30;;;;;;;;;;5043171;28;20026;-69
2022/05/14 08:52:40;;;;;;;13.18;5.53;;;;;;;;;;5042515;28;20220;-68
2022/05/14 08:55:13;;;;;;;15.38;5.15;;;;;;;;;;5041866;28;20332;-69
2022/05/14 08:57:45;;;;;;;13.50;5.72;;;;;;;;;;5041148;28;20148;-68
2022/05/14 09:00:12;;;;;;;13.70;5.28;;;;;;;;;;5054671;28;20028;-69
2022/05/14 09:02:49;;;;;;;17.88;4.97;;;;;;;;;;5061013;28;20079;-71
2022/05/14 09:05:31;;;;;;;11.75;4.85;;;;;;;;;;5061987;28;20431;-68
2022/05/14 09:07:57;;;;;;;13.50;6.03;;;;;;;;;;5061573;28;20430;-70
2022/05/14 09:10:30;;;;;;;14.48;5.43;;;;;;;;;;5062200;28;20025;-69
2022/05/14 09:13:12;;;;;;;16.80;5.60;;;;;;;;;;5061713;28;20029;-70
2022/05/14 09:15:47;;;;;;;12.70;5.70;;;;;;;;;;5062533;28;20083;-68
2022/05/14 09:18:22;;;;;;;12.63;5.40;;;;;;;;;;5061669;28;20032;-72
2022/05/14 09:20:50;;;;;;;11.25;5.32;;;;;;;;;;5061036;28;20037;-74
2022/05/14 09:23:39;;;;;;;11.70;5.13;;;;;;;;;;5059197;28;20546;-81
2022/05/14 09:26:22;;;;;;;15.55;5.78;;;;;;;;;;5050906;28;20499;-76
2022/05/14 09:28:57;;;;;;;14.30;5.47;;;;;;;;;;5050530;28;20037;-72
2022/05/14 09:31:32;;;;;;;11.77;5.05;;;;;;;;;;5050402;28;20021;-70
2022/05/14 09:34:14;;;;;;;12.68;5.13;;;;;;;;;;5050568;28;20400;-72
2022/05/14 09:36:41;;;;;;;15.68;5.35;;;;;;;;;;5056035;28;20025;-71
2022/05/14 09:39:11;;;;;;;15.82;5.35;;;;;;;;;;5059709;28;20033;-69
2022/05/14 09:41:40;;;;;;;14.55;5.95;;;;;;;;;;5059745;28;20059;-73
2022/05/14 09:44:06;;;;;;;12.88;5.50;;;;;;;;;;5059957;28;20028;-73
2022/05/14 09:46:32;;;;;;;19.05;5.78;;;;;;;;;;5060411;28;20028;-71
2022/05/14 09:49:06;;;;;;;16.27;5.63;;;;;;;;;;5060584;28;20056;-73
2022/05/14 09:51:43;;;;;;;12.10;5.35;;;;;;;;;;5061474;28;20059;-71
2022/05/14 09:54:30;;;;;;;14.60;5.60;;;;;;;;;;5055407;28;20649;-71
2022/05/14 09:57:19;;;;;;;15.15;5.53;;;;;;;;;;5052688;28;20051;-72
2022/05/14 10:00:02;;;;;;;17.88;5.80;;;;;;;;;;5048548;28;20086;-71
2022/05/14 10:02:59;;;;;;;16.17;5.70;;;;;;;;;;5047919;28;20032;-73
2022/05/14 10:05:43;;;;;;;12.90;5.60;;;;;;;;;;5048671;28;20466;-73
2022/05/14 10:08:24;;;;;;;16.70;5.80;;;;;;;;;;5049639;28;20025;-72
2022/05/14 10:10:50;;;;;;;13.38;5.53;;;;;;;;;;5054835;28;20242;-71
2022/05/14 10:13:34;;;;;;;16.83;6.32;;;;;;;;;;5060499;28;20442;-71
2022/05/14 10:16:24;;;;;;;14.45;5.85;;;;;;;;;;5059538;28;20033;-72
2022/05/14 10:18:58;;;;;;;15.93;5.85;;;;;;;;;;5060051;28;20035;-73
2022/05/14 10:21:33;;;;;;;20.48;6.15;;;;;;;;;;5078243;28;20270;-72
2022/05/14 10:27:37;;;;;;;14.27;5.82;;;;;;;;;;5080520;28;20164;-72
2022/05/14 10:30:17;;;;;;;14.85;5.90;;;;;;;;;;5080343;28;20024;-72
2022/05/14 10:32:45;;;;;;;14.82;5.47;;;;;;;;;;5080487;28;20043;-73
2022/05/14 10:35:49;;;;;;;15.95;6.78;;;;;;;;;;5080838;28;20067;-72
2022/05/14 10:38:47;;;;;;;19.52;6.30;;;;;;;;;;5084778;28;20093;-71
2022/05/14 10:41:33;;;;;;;13.07;5.60;;;;;;;;;;5076904;28;20312;-72
2022/05/14 10:44:03;;;;;;;11.70;5.28;;;;;;;;;;5083962;28;20025;-73
2022/05/14 10:46:32;;;;;;;15.98;5.68;;;;;;;;;;5083903;28;20035;-72
2022/05/14 10:49:15;;;;;;;13.38;6.22;;;;;;;;;;5083433;28;20027;-72
2022/05/14 10:51:52;;;;;;;15.13;5.88;;;;;;;;;;5083598;28;20040;-73
2022/05/14 10:54:22;;;;;;;16.02;5.47;;;;;;;;;;5083396;28;20044;-72
2022/05/14 10:56:59;;;;;;;12.00;5.55;;;;;;;;;;5082981;28;20060;-72
2022/05/14 10:59:35;;;;;;;11.52;5.32;;;;;;;;;;5082786;28;20024;-73
2022/05/14 11:02:14;;;;;;;11.82;5.47;;;;;;;;;;5082938;28;20219;-72
2022/05/14 11:04:48;;;;;;;14.70;5.78;;;;;;;;;;5075923;28;20021;-74
2022/05/14 11:07:29;;;;;;;11.80;5.88;;;;;;;;;;5082357;28;20040;-71
2022/05/14 11:10:12;;;;;;;14.60;5.32;;;;;;;;;;5084619;28;20032;-73
2022/05/14 11:12:38;;;;;;;11.77;5.43;;;;;;;;;;5084464;28;20059;-71
2022/05/14 11:15:18;;;;;;;19.08;5.95;;;;;;;;;;5084644;28;20138;-71
2022/05/14 11:17:44;;;;;;;18.65;5.68;;;;;;;;;;5084961;28;20203;-72
2022/05/14 11:20:13;;;;;;;13.88;5.47;;;;;;;;;;5084866;28;20095;-72
2022/05/14 11:22:50;;;;;;;10.88;4.80;;;;;;;;;;5084258;28;20024;-71
2022/05/14 11:25:22;;;;;;;16.77;5.15;;;;;;;;;;5084455;28;20021;-72
2022/05/14 11:28:09;;;;;;;16.70;5.50;;;;;;;;;;5084689;28;20024;-71
2022/05/14 11:30:40;;;;;;;18.15;5.05;;;;;;;;;;5084355;28;20074;-72
2022/05/14 11:33:26;;;;;;;12.70;5.00;;;;;;;;;;5084346;28;20040;-71
2022/05/14 11:35:53;;;;;;;15.25;5.20;;;;;;;;;;5084227;28;20066;-69
2022/05/14 11:38:24;;;;;;;21.13;5.70;;;;;;;;;;5084154;28;20096;-71
2022/05/14 11:41:05;;;;;;;17.17;5.88;;;;;;;;;;5084131;28;20447;-72
2022/05/14 11:43:43;;;;;;;15.68;5.93;;;;;;;;;;5084128;28;20039;-71
2022/05/14 11:46:09;;;;;;;12.15;4.70;;;;;;;;;;5082705;28;20020;-69
2022/05/14 11:48:57;;;;;;;11.80;4.82;;;;;;;;;;5075309;28;20031;-73
2022/05/14 11:51:47;;;;;;;10.88;4.68;;;;;;;;;;5087741;28;20119;-73
2022/05/14 11:54:17;;;;;;;12.93;5.22;;;;;;;;;;5072121;28;20044;-71
2022/05/14 11:56:48;;;;;;;;;;;;;;;;;;5073035;28;20024;-71
2022/05/14 11:59:26;;;;;;;14.73;5.10;;;;;;;;;;5082069;28;19915;-72
2022/05/14 12:01:53;;;;;;;13.68;5.38;;;;;;;;;;5083077;28;20032;-73
2022/05/14 12:04:29;;;;;;;11.52;5.22;;;;;;;;;;5051352;28;20112;-72
2022/05/14 12:07:08;;;;;;;13.95;5.00;;;;;;;;;;5050884;28;20055;-73
2022/05/14 12:09:56;;;;;;;15.75;5.28;;;;;;;;;;5052091;28;20603;-72
2022/05/14 12:12:37;;;;;;;12.00;4.63;;;;;;;;;;5052086;28;20039;-71
2022/05/14 12:15:22;;;;;;;16.52;5.32;;;;;;;;;;5051975;28;20035;-73
2022/05/14 12:17:54;;;;;;;14.82;5.25;;;;;;;;;;5052289;28;20025;-72
2022/05/14 12:20:29;;;;;;;11.65;5.15;;;;;;;;;;5051395;28;20041;-73
2022/05/14 12:23:04;;;;;;;16.48;5.03;;;;;;;;;;5051697;28;20036;-72
2022/05/14 12:25:48;;;;;;;14.60;5.40;;;;;;;;;;5051703;28;20021;-71
2022/05/14 12:28:25;;;;;;;14.82;5.35;;;;;;;;;;5052048;28;20032;-72
2022/05/14 12:34:16;;;;;;;12.93;5.30;;;;;;;;;;5050825;28;20156;-73
2022/05/14 12:36:45;;;;;;;14.57;5.28;;;;;;;;;;5050323;28;20032;-69
2022/05/14 12:39:18;;;;;;;14.00;5.43;;;;;;;;;;5051598;28;20047;-72
2022/05/14 12:41:48;;;;;;;13.55;5.10;;;;;;;;;;5053164;28;20029;-72
2022/05/14 12:44:20;;;;;;;15.00;4.75;;;;;;;;;;5055469;28;20025;-72
2022/05/14 12:46:49;;;;;;;10.98;5.05;;;;;;;;;;5051356;28;20044;-73
2022/05/14 12:49:20;;;;;;;16.58;4.95;;;;;;;;;;5058594;28;20255;-71
2022/05/14 12:51:46;;;;;;;;;;;;;;;;;;5063026;28;20504;-70
2022/05/14 12:54:58;;;;;;;9.93;4.72;;;;;;;;;;5061372;28;19917;-72
2022/05/14 12:57:24;;;;;;;12.65;5.15;;;;;;;;;;5047429;28;20040;-69
2022/05/14 12:59:52;;;;;;;14.35;5.00;;;;;;;;;;5061925;28;20035;-69
2022/05/14 13:02:29;;;;;;;15.00;5.15;;;;;;;;;;5062722;28;20033;-70
2022/05/14 13:05:06;;;;;;;11.48;4.55;;;;;;;;;;5062772;28;20059;-71
2022/05/14 13:07:34;;;;;;;14.50;5.05;;;;;;;;;;5062698;28;20135;-70
2022/05/14 13:10:00;;;;;;;13.75;5.28;;;;;;;;;;5062535;28;20045;-70
2022/05/14 13:12:29;;;;;;;14.52;5.15;;;;;;;;;;5062323;28;20276;-68
2022/05/14 13:15:01;;;;;;;15.60;5.40;;;;;;;;;;5062303;28;20029;-71
2022/05/14 13:17:32;;;;;;;14.30;5.05;;;;;;;;;;5062384;28;20035;-70
2022/05/14 13:19:59;;;;;;;14.38;4.78;;;;;;;;;;5061377;28;20224;-69
2022/05/14 13:22:30;;;;;;;14.80;5.10;;;;;;;;;;5060933;28;20088;-71
2022/05/14 13:24:57;;;;;;;14.10;4.95;;;;;;;;;;5061109;28;20346;-69
2022/05/14 13:27:30;;;;;;;14.27;4.85;;;;;;;;;;5060556;28;20340;-69
2022/05/14 13:30:17;;;;;;;19.95;5.38;;;;;;;;;;5060712;28;20044;-69
2022/05/14 13:32:43;;;;;;;17.55;5.30;;;;;;;;;;5059971;28;20074;-72
2022/05/14 13:38:12;;;;;;;17.45;5.60;;;;;;;;;;5060685;28;20027;-69
2022/05/14 13:40:45;;;;;;;11.90;4.80;;;;;;;;;;5060466;28;20086;-72
2022/05/14 13:43:33;;;;;;;11.77;4.85;;;;;;;;;;5060092;28;20039;-73
2022/05/14 13:46:05;;;;;;;14.05;4.35;;;;;;;;;;5060262;28;20300;-73
2022/05/14 13:48:36;;;;;;;11.20;4.72;;;;;;;;;;5060247;28;20036;-72
2022/05/14 13:51:16;;;;;;;15.05;5.10;;;;;;;;;;5053237;28;20075;-73
2022/05/14 13:53:42;;;;;;;;;;;;;;;;;;5050311;28;20045;-71
2022/05/14 13:56:28;;;;;;;9.77;4.72;;;;;;;;;;5050214;28;19912;-72
2022/05/14 13:58:58;;;;;;;9.45;4.28;;;;;;;;;;5050330;28;20092;-69
2022/05/14 14:01:32;;;;;;;11.30;4.75;;;;;;;;;;5048752;28;20060;-73
2022/05/14 14:03:59;;;;;;;15.98;4.80;;;;;;;;;;5050400;28;20051;-71
2022/05/14 14:06:32;;;;;;;12.75;5.03;;;;;;;;;;5050085;28;20033;-73
2022/05/14 14:08:57;;;;;;;11.32;4.53;;;;;;;;;;5052200;28;20025;-72
2022/05/14 14:11:25;;;;;;;14.15;4.78;;;;;;;;;;5050607;28;20033;-75
2022/05/14 14:13:51;;;;;;;14.88;4.90;;;;;;;;;;5051263;28;20651;-75
2022/05/14 14:16:16;;;;;;;17.13;4.80;;;;;;;;;;5058752;28;20024;-69
2022/05/14 14:18:42;;;;;;;16.58;4.90;;;;;;;;;;5059512;28;20035;-72
2022/05/14 14:21:11;;;;;;;13.65;4.38;;;;;;;;;;5051944;28;20032;-74
2022/05/14 14:23:45;;;;;;;14.32;4.90;;;;;;;;;;5049383;28;20033;-72
2022/05/14 14:26:10;;;;;;;16.58;5.32;;;;;;;;;;5049618;28;20091;-69
2022/05/14 14:28:36;;;;;;;12.70;4.60;;;;;;;;;;5049907;28;20542;-72
2022/05/14 14:31:03;;;;;;;13.48;4.80;;;;;;;;;;5049629;28;20060;-74
2022/05/14 14:33:35;;;;;;;18.55;5.03;;;;;;;;;;5049972;28;20044;-74
2022/05/14 14:36:01;;;;;;;14.80;4.70;;;;;;;;;;5048398;28;20027;-74
2022/05/14 14:38:26;;;;;;;12.13;4.32;;;;;;;;;;5049456;28;20531;-72
2022/05/14 14:40:52;;;;;;;14.77;4.88;;;;;;;;;;5049625;28;20051;-73
2022/05/14 14:43:18;;;;;;;13.00;4.68;;;;;;;;;;5049587;28;20021;-69
2022/05/14 14:45:44;;;;;;;15.30;4.90;;;;;;;;;;5059344;28;20013;-72
2022/05/14 14:48:12;;;;;;;11.32;4.50;;;;;;;;;;5061299;28;20087;-68
2022/05/14 14:50:38;;;;;;;12.82;4.35;;;;;;;;;;5060498;28;20052;-73
2022/05/14 14:53:04;;;;;;;9.45;4.55;;;;;;;;;;5060110;28;20120;-72
2022/05/14 14:55:30;;;;;;;13.95;4.72;;;;;;;;;;5059870;28;20045;-76
2022/05/14 14:57:55;;;;;;;13.93;4.72;;;;;;;;;;5060170;28;20047;-73
2022/05/14 15:00:23;;;;;;;10.88;4.90;;;;;;;;;;5059787;28;20484;-76
2022/05/14 15:03:04;;;;;;;13.15;4.57;;;;;;;;;;5059160;28;20044;-72
2022/05/14 15:05:37;;;;;;;12.15;4.38;;;;;;;;;;5056964;28;20033;-66
2022/05/14 15:08:03;;;;;;;12.90;4.45;;;;;;;;;;5059152;28;20441;-69
2022/05/14 15:10:29;;;;;;;18.08;5.05;;;;;;;;;;5059536;28;20033;-68